sensor_id;sensor_type;location;lat;lon;timestamp;P1;durP1;ratioP1;P2;durP2;ratioP2
2305;SDS011;1161;51.922;8.896;2023-02-08T00:01:24;30.80;;;15.23;;
2305;SDS011;1161;51.922;8.896;2023-02-08T00:03:51;31.35;;;16.38;;
2305;SDS011;1161;51.922;8.896;2023-02-08T00:06:18;26.02;;;15.82;;
2305;SDS011;1161;51.922;8.896;2023-02-08T00:08:45;26.58;;;15.60;;
2305;SDS011;1161;51.922;8.896;2023-02-08T00:11:12;28.33;;;16.02;;
2305;SDS011;1161;51.922;8.896;2023-02-08T00:13:40;27.42;;;15.20;;
2305;SDS011;1161;51.922;8.896;2023-02-08T00:16:11;37.15;;;15.63;;
2305;SDS011;1161;51.922;8.896;2023-02-08T00:18:38;27.30;;;13.75;;
2305;SDS011;1161;51.922;8.896;2023-02-08T00:21:06;29.60;;;13.20;;
2305;SDS011;1161;51.922;8.896;2023-02-08T00:23:33;32.55;;;15.15;;
2305;SDS011;1161;51.922;8.896;2023-02-08T00:26:00;35.45;;;17.80;;
2305;SDS011;1161;51.922;8.896;2023-02-08T00:28:27;32.75;;;15.98;;
2305;SDS011;1161;51.922;8.896;2023-02-08T00:30:55;30.35;;;15.98;;
2305;SDS011;1161;51.922;8.896;2023-02-08T00:33:21;30.02;;;13.77;;
2305;SDS011;1161;51.922;8.896;2023-02-08T00:35:48;28.20;;;14.70;;
2305;SDS011;1161;51.922;8.896;2023-02-08T00:38:15;27.92;;;13.80;;
2305;SDS011;1161;51.922;8.896;2023-02-08T00:40:42;34.85;;;15.00;;
2305;SDS011;1161;51.922;8.896;2023-02-08T00:43:09;26.92;;;15.15;;
2305;SDS011;1161;51.922;8.896;2023-02-08T00:45:35;28.60;;;14.32;;
2305;SDS011;1161;51.922;8.896;2023-02-08T00:48:03;28.70;;;14.82;;
2305;SDS011;1161;51.922;8.896;2023-02-08T00:50:30;25.77;;;14.00;;
2305;SDS011;1161;51.922;8.896;2023-02-08T00:52:57;30.73;;;15.98;;
2305;SDS011;1161;51.922;8.896;2023-02-08T00:55:24;32.75;;;14.60;;
2305;SDS011;1161;51.922;8.896;2023-02-08T00:57:51;24.30;;;13.55;;
2305;SDS011;1161;51.922;8.896;2023-02-08T01:00:17;27.65;;;14.52;;
2305;SDS011;1161;51.922;8.896;2023-02-08T01:02:44;36.50;;;15.23;;
2305;SDS011;1161;51.922;8.896;2023-02-08T01:05:12;27.95;;;15.25;;
2305;SDS011;1161;51.922;8.896;2023-02-08T01:07:39;28.73;;;14.82;;
2305;SDS011;1161;51.922;8.896;2023-02-08T01:10:06;28.52;;;16.10;;
2305;SDS011;1161;51.922;8.896;2023-02-08T01:12:36;31.63;;;17.13;;
2305;SDS011;1161;51.922;8.896;2023-02-08T01:15:03;32.95;;;15.30;;
2305;SDS011;1161;51.922;8.896;2023-02-08T01:17:30;28.10;;;15.02;;
2305;SDS011;1161;51.922;8.896;2023-02-08T01:19:56;33.58;;;17.23;;
2305;SDS011;1161;51.922;8.896;2023-02-08T01:22:24;35.75;;;15.50;;
2305;SDS011;1161;51.922;8.896;2023-02-08T01:24:51;32.25;;;15.80;;
2305;SDS011;1161;51.922;8.896;2023-02-08T01:27:18;34.97;;;16.90;;
2305;SDS011;1161;51.922;8.896;2023-02-08T01:29:44;32.40;;;14.77;;
2305;SDS011;1161;51.922;8.896;2023-02-08T01:32:11;33.47;;;15.35;;
2305;SDS011;1161;51.922;8.896;2023-02-08T01:34:38;30.60;;;17.70;;
2305;SDS011;1161;51.922;8.896;2023-02-08T01:37:05;35.65;;;15.93;;
2305;SDS011;1161;51.922;8.896;2023-02-08T01:39:33;27.30;;;13.35;;
2305;SDS011;1161;51.922;8.896;2023-02-08T01:41:59;39.22;;;17.35;;
2305;SDS011;1161;51.922;8.896;2023-02-08T01:47:41;26.25;;;13.45;;
2305;SDS011;1161;51.922;8.896;2023-02-08T01:50:09;36.40;;;14.75;;
2305;SDS011;1161;51.922;8.896;2023-02-08T01:52:36;22.30;;;12.57;;
2305;SDS011;1161;51.922;8.896;2023-02-08T01:55:05;26.25;;;15.02;;
2305;SDS011;1161;51.922;8.896;2023-02-08T01:57:35;37.03;;;14.40;;
2305;SDS011;1161;51.922;8.896;2023-02-08T02:00:03;37.47;;;13.63;;
2305;SDS011;1161;51.922;8.896;2023-02-08T02:02:33;29.50;;;16.23;;
2305;SDS011;1161;51.922;8.896;2023-02-08T02:05:01;35.85;;;13.73;;
2305;SDS011;1161;51.922;8.896;2023-02-08T02:07:28;30.95;;;14.68;;
2305;SDS011;1161;51.922;8.896;2023-02-08T02:09:57;27.63;;;15.90;;
2305;SDS011;1161;51.922;8.896;2023-02-08T02:12:27;32.92;;;13.68;;
2305;SDS011;1161;51.922;8.896;2023-02-08T02:14:55;34.45;;;15.57;;
2305;SDS011;1161;51.922;8.896;2023-02-08T02:17:21;34.65;;;14.02;;
2305;SDS011;1161;51.922;8.896;2023-02-08T02:19:51;29.13;;;15.20;;
2305;SDS011;1161;51.922;8.896;2023-02-08T02:22:26;33.33;;;15.95;;
2305;SDS011;1161;51.922;8.896;2023-02-08T02:25:09;27.67;;;15.60;;
2305;SDS011;1161;51.922;8.896;2023-02-08T02:27:53;40.70;;;14.80;;
2305;SDS011;1161;51.922;8.896;2023-02-08T02:30:40;35.33;;;15.27;;
2305;SDS011;1161;51.922;8.896;2023-02-08T02:33:35;38.60;;;16.92;;
2305;SDS011;1161;51.922;8.896;2023-02-08T02:36:11;29.15;;;15.38;;
2305;SDS011;1161;51.922;8.896;2023-02-08T02:38:46;33.58;;;15.10;;
2305;SDS011;1161;51.922;8.896;2023-02-08T02:41:19;36.10;;;16.92;;
2305;SDS011;1161;51.922;8.896;2023-02-08T02:44:02;30.40;;;13.30;;
2305;SDS011;1161;51.922;8.896;2023-02-08T02:46:34;23.33;;;14.13;;
2305;SDS011;1161;51.922;8.896;2023-02-08T02:49:08;31.10;;;14.45;;
2305;SDS011;1161;51.922;8.896;2023-02-08T02:51:41;31.08;;;14.55;;
2305;SDS011;1161;51.922;8.896;2023-02-08T02:54:14;33.88;;;16.50;;
2305;SDS011;1161;51.922;8.896;2023-02-08T02:56:43;29.83;;;15.25;;
2305;SDS011;1161;51.922;8.896;2023-02-08T02:59:11;32.45;;;15.07;;
2305;SDS011;1161;51.922;8.896;2023-02-08T03:01:39;36.80;;;14.57;;
2305;SDS011;1161;51.922;8.896;2023-02-08T03:04:13;33.33;;;16.10;;
2305;SDS011;1161;51.922;8.896;2023-02-08T03:06:42;29.75;;;15.52;;
2305;SDS011;1161;51.922;8.896;2023-02-08T03:09:23;39.33;;;18.77;;
2305;SDS011;1161;51.922;8.896;2023-02-08T03:11:57;25.17;;;13.35;;
2305;SDS011;1161;51.922;8.896;2023-02-08T03:14:32;28.77;;;14.82;;
2305;SDS011;1161;51.922;8.896;2023-02-08T03:17:08;25.88;;;14.00;;
2305;SDS011;1161;51.922;8.896;2023-02-08T03:19:47;27.90;;;16.05;;
2305;SDS011;1161;51.922;8.896;2023-02-08T03:22:20;31.67;;;15.82;;
2305;SDS011;1161;51.922;8.896;2023-02-08T03:24:53;33.00;;;15.07;;
2305;SDS011;1161;51.922;8.896;2023-02-08T03:27:24;24.70;;;14.48;;
2305;SDS011;1161;51.922;8.896;2023-02-08T03:29:54;24.73;;;14.68;;
2305;SDS011;1161;51.922;8.896;2023-02-08T03:32:24;30.70;;;15.88;;
2305;SDS011;1161;51.922;8.896;2023-02-08T03:34:58;36.65;;;16.80;;
2305;SDS011;1161;51.922;8.896;2023-02-08T03:37:29;35.38;;;15.63;;
2305;SDS011;1161;51.922;8.896;2023-02-08T03:39:58;31.70;;;15.30;;
2305;SDS011;1161;51.922;8.896;2023-02-08T03:42:28;30.77;;;15.48;;
2305;SDS011;1161;51.922;8.896;2023-02-08T03:44:59;36.30;;;17.60;;
2305;SDS011;1161;51.922;8.896;2023-02-08T03:47:28;29.67;;;17.05;;
2305;SDS011;1161;51.922;8.896;2023-02-08T03:50:03;29.50;;;15.60;;
2305;SDS011;1161;51.922;8.896;2023-02-08T03:52:30;36.30;;;16.00;;
2305;SDS011;1161;51.922;8.896;2023-02-08T03:55:00;32.80;;;17.27;;
2305;SDS011;1161;51.922;8.896;2023-02-08T03:57:31;26.70;;;15.45;;
2305;SDS011;1161;51.922;8.896;2023-02-08T04:00:05;27.17;;;13.95;;
2305;SDS011;1161;51.922;8.896;2023-02-08T04:02:37;34.22;;;17.38;;
2305;SDS011;1161;51.922;8.896;2023-02-08T04:05:07;35.10;;;16.27;;
2305;SDS011;1161;51.922;8.896;2023-02-08T04:07:34;31.23;;;14.27;;
2305;SDS011;1161;51.922;8.896;2023-02-08T04:10:01;28.55;;;15.15;;
2305;SDS011;1161;51.922;8.896;2023-02-08T04:12:28;31.13;;;15.18;;
2305;SDS011;1161;51.922;8.896;2023-02-08T04:14:54;31.67;;;16.23;;
2305;SDS011;1161;51.922;8.896;2023-02-08T04:17:22;34.50;;;16.42;;
2305;SDS011;1161;51.922;8.896;2023-02-08T04:19:48;33.97;;;16.10;;
2305;SDS011;1161;51.922;8.896;2023-02-08T04:22:17;24.80;;;14.50;;
2305;SDS011;1161;51.922;8.896;2023-02-08T04:24:44;29.83;;;15.23;;
2305;SDS011;1161;51.922;8.896;2023-02-08T04:27:11;36.85;;;18.30;;
2305;SDS011;1161;51.922;8.896;2023-02-08T04:29:41;33.53;;;14.93;;
2305;SDS011;1161;51.922;8.896;2023-02-08T04:32:07;32.33;;;15.55;;
2305;SDS011;1161;51.922;8.896;2023-02-08T04:34:37;32.72;;;16.08;;
2305;SDS011;1161;51.922;8.896;2023-02-08T04:37:08;37.45;;;16.70;;
2305;SDS011;1161;51.922;8.896;2023-02-08T04:39:44;33.90;;;16.10;;
2305;SDS011;1161;51.922;8.896;2023-02-08T04:42:14;43.35;;;16.52;;
2305;SDS011;1161;51.922;8.896;2023-02-08T04:44:44;31.15;;;16.60;;
2305;SDS011;1161;51.922;8.896;2023-02-08T04:47:12;26.92;;;15.48;;
2305;SDS011;1161;51.922;8.896;2023-02-08T04:49:39;23.90;;;13.52;;
2305;SDS011;1161;51.922;8.896;2023-02-08T04:52:06;28.20;;;16.95;;
2305;SDS011;1161;51.922;8.896;2023-02-08T04:54:35;32.67;;;16.35;;
2305;SDS011;1161;51.922;8.896;2023-02-08T04:57:03;32.85;;;14.23;;
2305;SDS011;1161;51.922;8.896;2023-02-08T04:59:31;29.83;;;15.18;;
2305;SDS011;1161;51.922;8.896;2023-02-08T05:01:58;31.08;;;15.63;;
2305;SDS011;1161;51.922;8.896;2023-02-08T05:04:25;31.75;;;15.80;;
2305;SDS011;1161;51.922;8.896;2023-02-08T05:06:55;29.70;;;14.27;;
2305;SDS011;1161;51.922;8.896;2023-02-08T05:09:22;30.10;;;17.15;;
2305;SDS011;1161;51.922;8.896;2023-02-08T05:11:50;31.58;;;15.25;;
2305;SDS011;1161;51.922;8.896;2023-02-08T05:14:20;30.10;;;15.02;;
2305;SDS011;1161;51.922;8.896;2023-02-08T05:16:50;33.25;;;15.77;;
2305;SDS011;1161;51.922;8.896;2023-02-08T05:19:17;24.15;;;13.75;;
2305;SDS011;1161;51.922;8.896;2023-02-08T05:21:44;39.83;;;15.80;;
2305;SDS011;1161;51.922;8.896;2023-02-08T05:24:12;26.08;;;14.38;;
2305;SDS011;1161;51.922;8.896;2023-02-08T05:26:39;30.27;;;15.30;;
2305;SDS011;1161;51.922;8.896;2023-02-08T05:29:07;24.60;;;14.30;;
2305;SDS011;1161;51.922;8.896;2023-02-08T05:31:39;27.08;;;15.43;;
2305;SDS011;1161;51.922;8.896;2023-02-08T05:34:06;25.90;;;14.15;;
2305;SDS011;1161;51.922;8.896;2023-02-08T05:36:33;28.08;;;16.10;;
2305;SDS011;1161;51.922;8.896;2023-02-08T05:39:02;31.88;;;15.68;;
2305;SDS011;1161;51.922;8.896;2023-02-08T05:41:29;27.80;;;14.20;;
2305;SDS011;1161;51.922;8.896;2023-02-08T05:43:56;33.65;;;15.38;;
2305;SDS011;1161;51.922;8.896;2023-02-08T05:46:25;34.17;;;15.88;;
2305;SDS011;1161;51.922;8.896;2023-02-08T05:48:54;34.33;;;13.73;;
2305;SDS011;1161;51.922;8.896;2023-02-08T05:51:21;31.55;;;13.10;;
2305;SDS011;1161;51.922;8.896;2023-02-08T05:53:49;29.13;;;16.27;;
2305;SDS011;1161;51.922;8.896;2023-02-08T05:56:17;32.78;;;17.10;;
2305;SDS011;1161;51.922;8.896;2023-02-08T05:58:47;37.40;;;16.80;;
2305;SDS011;1161;51.922;8.896;2023-02-08T06:01:15;28.75;;;13.90;;
2305;SDS011;1161;51.922;8.896;2023-02-08T06:03:43;35.55;;;15.75;;
2305;SDS011;1161;51.922;8.896;2023-02-08T06:06:15;28.92;;;14.45;;
2305;SDS011;1161;51.922;8.896;2023-02-08T06:08:44;36.10;;;17.08;;
2305;SDS011;1161;51.922;8.896;2023-02-08T06:11:12;34.10;;;14.50;;
2305;SDS011;1161;51.922;8.896;2023-02-08T06:13:39;22.48;;;13.48;;
2305;SDS011;1161;51.922;8.896;2023-02-08T06:16:06;30.80;;;14.48;;
2305;SDS011;1161;51.922;8.896;2023-02-08T06:18:33;23.13;;;14.50;;
2305;SDS011;1161;51.922;8.896;2023-02-08T06:21:00;35.65;;;14.68;;
2305;SDS011;1161;51.922;8.896;2023-02-08T06:23:29;29.88;;;14.82;;
2305;SDS011;1161;51.922;8.896;2023-02-08T06:26:01;35.30;;;14.93;;
2305;SDS011;1161;51.922;8.896;2023-02-08T06:28:28;28.65;;;14.68;;
2305;SDS011;1161;51.922;8.896;2023-02-08T06:30:55;41.33;;;17.95;;
2305;SDS011;1161;51.922;8.896;2023-02-08T06:33:22;37.30;;;15.95;;
2305;SDS011;1161;51.922;8.896;2023-02-08T06:35:54;28.05;;;13.73;;
2305;SDS011;1161;51.922;8.896;2023-02-08T06:38:21;41.90;;;16.48;;
2305;SDS011;1161;51.922;8.896;2023-02-08T06:40:49;29.23;;;14.50;;
2305;SDS011;1161;51.922;8.896;2023-02-08T06:43:16;28.15;;;12.40;;
2305;SDS011;1161;51.922;8.896;2023-02-08T06:45:48;30.92;;;17.08;;
2305;SDS011;1161;51.922;8.896;2023-02-08T06:48:15;30.00;;;14.65;;
2305;SDS011;1161;51.922;8.896;2023-02-08T06:50:44;25.20;;;13.27;;
2305;SDS011;1161;51.922;8.896;2023-02-08T06:53:11;23.23;;;12.50;;
2305;SDS011;1161;51.922;8.896;2023-02-08T06:55:46;26.50;;;12.57;;
2305;SDS011;1161;51.922;8.896;2023-02-08T06:58:15;32.97;;;16.45;;
2305;SDS011;1161;51.922;8.896;2023-02-08T07:00:44;17.50;;;11.85;;
2305;SDS011;1161;51.922;8.896;2023-02-08T07:03:11;18.90;;;12.25;;
2305;SDS011;1161;51.922;8.896;2023-02-08T07:05:41;28.45;;;14.18;;
2305;SDS011;1161;51.922;8.896;2023-02-08T07:08:08;29.95;;;14.05;;
2305;SDS011;1161;51.922;8.896;2023-02-08T07:10:37;36.30;;;13.52;;
2305;SDS011;1161;51.922;8.896;2023-02-08T07:13:05;37.75;;;14.75;;
2305;SDS011;1161;51.922;8.896;2023-02-08T07:15:36;27.20;;;13.57;;
2305;SDS011;1161;51.922;8.896;2023-02-08T07:18:03;26.30;;;13.52;;
2305;SDS011;1161;51.922;8.896;2023-02-08T07:20:30;24.30;;;14.65;;
2305;SDS011;1161;51.922;8.896;2023-02-08T07:22:57;29.05;;;14.95;;
2305;SDS011;1161;51.922;8.896;2023-02-08T07:25:25;27.48;;;14.57;;
2305;SDS011;1161;51.922;8.896;2023-02-08T07:27:52;24.08;;;12.80;;
2305;SDS011;1161;51.922;8.896;2023-02-08T07:30:20;30.98;;;14.82;;
2305;SDS011;1161;51.922;8.896;2023-02-08T07:32:48;29.25;;;11.90;;
2305;SDS011;1161;51.922;8.896;2023-02-08T07:35:15;32.45;;;14.57;;
2305;SDS011;1161;51.922;8.896;2023-02-08T07:37:43;34.42;;;13.65;;
2305;SDS011;1161;51.922;8.896;2023-02-08T07:40:10;28.95;;;13.93;;
2305;SDS011;1161;51.922;8.896;2023-02-08T07:42:37;32.17;;;14.57;;
2305;SDS011;1161;51.922;8.896;2023-02-08T07:45:06;31.10;;;14.50;;
2305;SDS011;1161;51.922;8.896;2023-02-08T07:47:35;42.38;;;16.00;;
2305;SDS011;1161;51.922;8.896;2023-02-08T07:50:04;32.65;;;15.80;;
2305;SDS011;1161;51.922;8.896;2023-02-08T07:52:32;30.45;;;15.50;;
2305;SDS011;1161;51.922;8.896;2023-02-08T07:55:00;28.23;;;13.35;;
2305;SDS011;1161;51.922;8.896;2023-02-08T07:57:27;28.25;;;14.70;;
2305;SDS011;1161;51.922;8.896;2023-02-08T07:59:54;31.05;;;16.85;;
2305;SDS011;1161;51.922;8.896;2023-02-08T08:02:21;34.78;;;13.48;;
2305;SDS011;1161;51.922;8.896;2023-02-08T08:04:48;33.67;;;16.20;;
2305;SDS011;1161;51.922;8.896;2023-02-08T08:07:16;34.65;;;15.23;;
2305;SDS011;1161;51.922;8.896;2023-02-08T08:09:43;39.22;;;16.15;;
2305;SDS011;1161;51.922;8.896;2023-02-08T08:12:10;28.55;;;14.35;;
2305;SDS011;1161;51.922;8.896;2023-02-08T08:14:37;39.92;;;15.02;;
2305;SDS011;1161;51.922;8.896;2023-02-08T08:17:03;41.17;;;16.73;;
2305;SDS011;1161;51.922;8.896;2023-02-08T08:19:30;28.73;;;15.52;;
2305;SDS011;1161;51.922;8.896;2023-02-08T08:21:57;36.28;;;15.20;;
2305;SDS011;1161;51.922;8.896;2023-02-08T08:24:25;42.88;;;20.10;;
2305;SDS011;1161;51.922;8.896;2023-02-08T08:26:52;34.30;;;16.98;;
2305;SDS011;1161;51.922;8.896;2023-02-08T08:29:18;42.20;;;17.05;;
2305;SDS011;1161;51.922;8.896;2023-02-08T08:31:45;36.47;;;17.75;;
2305;SDS011;1161;51.922;8.896;2023-02-08T08:34:12;37.28;;;18.83;;
2305;SDS011;1161;51.922;8.896;2023-02-08T08:36:38;30.10;;;15.70;;
2305;SDS011;1161;51.922;8.896;2023-02-08T08:39:05;38.65;;;15.63;;
2305;SDS011;1161;51.922;8.896;2023-02-08T08:41:33;29.05;;;15.45;;
2305;SDS011;1161;51.922;8.896;2023-02-08T08:44:01;34.35;;;16.75;;
2305;SDS011;1161;51.922;8.896;2023-02-08T08:46:28;44.13;;;15.63;;
2305;SDS011;1161;51.922;8.896;2023-02-08T08:48:54;39.30;;;16.48;;
2305;SDS011;1161;51.922;8.896;2023-02-08T08:51:21;29.40;;;15.45;;
2305;SDS011;1161;51.922;8.896;2023-02-08T08:53:47;38.35;;;15.50;;
2305;SDS011;1161;51.922;8.896;2023-02-08T08:56:14;26.00;;;13.73;;
2305;SDS011;1161;51.922;8.896;2023-02-08T08:58:42;38.17;;;17.77;;
2305;SDS011;1161;51.922;8.896;2023-02-08T09:01:08;33.63;;;16.67;;
2305;SDS011;1161;51.922;8.896;2023-02-08T09:03:36;38.40;;;17.10;;
2305;SDS011;1161;51.922;8.896;2023-02-08T09:06:03;31.88;;;16.27;;
2305;SDS011;1161;51.922;8.896;2023-02-08T09:08:29;35.13;;;16.92;;
2305;SDS011;1161;51.922;8.896;2023-02-08T09:10:56;28.23;;;14.50;;
2305;SDS011;1161;51.922;8.896;2023-02-08T09:13:29;31.95;;;16.38;;
2305;SDS011;1161;51.922;8.896;2023-02-08T09:15:59;34.38;;;16.02;;
2305;SDS011;1161;51.922;8.896;2023-02-08T09:18:29;37.40;;;17.15;;
2305;SDS011;1161;51.922;8.896;2023-02-08T09:20:56;31.55;;;16.17;;
2305;SDS011;1161;51.922;8.896;2023-02-08T09:23:23;37.97;;;17.83;;
2305;SDS011;1161;51.922;8.896;2023-02-08T09:25:49;33.15;;;16.05;;
2305;SDS011;1161;51.922;8.896;2023-02-08T09:28:16;28.60;;;16.50;;
2305;SDS011;1161;51.922;8.896;2023-02-08T09:30:43;32.30;;;17.02;;
2305;SDS011;1161;51.922;8.896;2023-02-08T09:33:11;37.72;;;17.20;;
2305;SDS011;1161;51.922;8.896;2023-02-08T09:35:37;36.22;;;19.08;;
2305;SDS011;1161;51.922;8.896;2023-02-08T09:38:04;40.92;;;15.80;;
2305;SDS011;1161;51.922;8.896;2023-02-08T09:40:34;33.95;;;16.23;;
2305;SDS011;1161;51.922;8.896;2023-02-08T09:43:05;35.90;;;15.48;;
2305;SDS011;1161;51.922;8.896;2023-02-08T09:45:37;32.90;;;16.55;;
2305;SDS011;1161;51.922;8.896;2023-02-08T09:48:12;33.25;;;16.08;;
2305;SDS011;1161;51.922;8.896;2023-02-08T09:50:45;32.05;;;15.77;;
2305;SDS011;1161;51.922;8.896;2023-02-08T09:53:14;28.10;;;14.98;;
2305;SDS011;1161;51.922;8.896;2023-02-08T09:55:45;31.95;;;15.35;;
2305;SDS011;1161;51.922;8.896;2023-02-08T09:58:16;37.33;;;17.52;;
2305;SDS011;1161;51.922;8.896;2023-02-08T10:00:46;32.13;;;15.75;;
2305;SDS011;1161;51.922;8.896;2023-02-08T10:03:20;41.75;;;16.08;;
2305;SDS011;1161;51.922;8.896;2023-02-08T10:05:53;25.05;;;14.90;;
2305;SDS011;1161;51.922;8.896;2023-02-08T10:08:20;33.00;;;13.90;;
2305;SDS011;1161;51.922;8.896;2023-02-08T10:10:50;32.05;;;15.15;;
2305;SDS011;1161;51.922;8.896;2023-02-08T10:13:23;24.38;;;12.80;;
2305;SDS011;1161;51.922;8.896;2023-02-08T10:15:59;30.20;;;15.23;;
2305;SDS011;1161;51.922;8.896;2023-02-08T10:18:34;28.05;;;15.02;;
2305;SDS011;1161;51.922;8.896;2023-02-08T10:21:10;29.50;;;14.50;;
2305;SDS011;1161;51.922;8.896;2023-02-08T10:26:40;30.70;;;15.93;;
2305;SDS011;1161;51.922;8.896;2023-02-08T10:29:18;28.67;;;13.50;;
2305;SDS011;1161;51.922;8.896;2023-02-08T10:31:56;27.83;;;14.50;;
2305;SDS011;1161;51.922;8.896;2023-02-08T10:34:34;26.73;;;14.02;;
2305;SDS011;1161;51.922;8.896;2023-02-08T10:37:08;19.10;;;11.93;;
2305;SDS011;1161;51.922;8.896;2023-02-08T10:39:38;29.80;;;12.03;;
2305;SDS011;1161;51.922;8.896;2023-02-08T10:42:08;22.70;;;12.20;;
2305;SDS011;1161;51.922;8.896;2023-02-08T10:44:40;24.83;;;13.25;;
2305;SDS011;1161;51.922;8.896;2023-02-08T10:47:18;24.13;;;10.93;;
2305;SDS011;1161;51.922;8.896;2023-02-08T10:49:49;24.53;;;10.83;;
2305;SDS011;1161;51.922;8.896;2023-02-08T10:52:19;21.80;;;12.17;;
2305;SDS011;1161;51.922;8.896;2023-02-08T10:54:46;22.93;;;12.10;;
2305;SDS011;1161;51.922;8.896;2023-02-08T10:57:13;26.57;;;12.07;;
2305;SDS011;1161;51.922;8.896;2023-02-08T10:59:46;19.20;;;11.07;;
2305;SDS011;1161;51.922;8.896;2023-02-08T11:02:18;22.50;;;11.83;;
2305;SDS011;1161;51.922;8.896;2023-02-08T11:04:57;19.67;;;11.13;;
2305;SDS011;1161;51.922;8.896;2023-02-08T11:07:30;17.40;;;10.07;;
2305;SDS011;1161;51.922;8.896;2023-02-08T11:10:12;23.97;;;11.30;;
2305;SDS011;1161;51.922;8.896;2023-02-08T11:12:42;16.80;;;11.67;;
2305;SDS011;1161;51.922;8.896;2023-02-08T11:15:22;20.30;;;11.07;;
2305;SDS011;1161;51.922;8.896;2023-02-08T11:17:55;17.63;;;10.37;;
2305;SDS011;1161;51.922;8.896;2023-02-08T11:20:26;21.83;;;12.50;;
2305;SDS011;1161;51.922;8.896;2023-02-08T11:22:57;23.50;;;11.53;;
2305;SDS011;1161;51.922;8.896;2023-02-08T11:25:31;25.63;;;13.70;;
2305;SDS011;1161;51.922;8.896;2023-02-08T11:28:00;18.50;;;10.63;;
2305;SDS011;1161;51.922;8.896;2023-02-08T11:30:27;21.73;;;12.67;;
2305;SDS011;1161;51.922;8.896;2023-02-08T11:33:14;22.10;;;10.77;;
2305;SDS011;1161;51.922;8.896;2023-02-08T11:35:46;25.63;;;12.20;;
2305;SDS011;1161;51.922;8.896;2023-02-08T11:38:19;23.20;;;12.30;;
2305;SDS011;1161;51.922;8.896;2023-02-08T11:40:51;19.37;;;10.17;;
2305;SDS011;1161;51.922;8.896;2023-02-08T11:43:20;19.13;;;11.27;;
2305;SDS011;1161;51.922;8.896;2023-02-08T11:45:54;29.03;;;12.30;;
2305;SDS011;1161;51.922;8.896;2023-02-08T11:48:23;25.77;;;12.07;;
2305;SDS011;1161;51.922;8.896;2023-02-08T11:50:53;23.07;;;10.93;;
2305;SDS011;1161;51.922;8.896;2023-02-08T11:53:23;22.70;;;11.40;;
2305;SDS011;1161;51.922;8.896;2023-02-08T11:56:03;28.30;;;13.23;;
2305;SDS011;1161;51.922;8.896;2023-02-08T11:58:33;23.33;;;12.50;;
2305;SDS011;1161;51.922;8.896;2023-02-08T12:01:00;19.33;;;12.30;;
2305;SDS011;1161;51.922;8.896;2023-02-08T12:03:29;23.40;;;12.73;;
2305;SDS011;1161;51.922;8.896;2023-02-08T12:06:06;25.93;;;12.27;;
2305;SDS011;1161;51.922;8.896;2023-02-08T12:08:40;26.63;;;12.07;;
2305;SDS011;1161;51.922;8.896;2023-02-08T12:11:11;20.10;;;11.70;;
2305;SDS011;1161;51.922;8.896;2023-02-08T12:13:44;24.80;;;12.90;;
2305;SDS011;1161;51.922;8.896;2023-02-08T12:16:24;22.40;;;11.60;;
2305;SDS011;1161;51.922;8.896;2023-02-08T12:19:04;26.83;;;13.00;;
2305;SDS011;1161;51.922;8.896;2023-02-08T12:21:45;26.60;;;14.10;;
2305;SDS011;1161;51.922;8.896;2023-02-08T12:24:15;24.80;;;12.47;;
2305;SDS011;1161;51.922;8.896;2023-02-08T12:26:53;28.27;;;12.53;;
2305;SDS011;1161;51.922;8.896;2023-02-08T12:29:33;22.33;;;11.70;;
2305;SDS011;1161;51.922;8.896;2023-02-08T12:32:11;22.97;;;11.70;;
2305;SDS011;1161;51.922;8.896;2023-02-08T12:34:51;20.40;;;11.87;;
2305;SDS011;1161;51.922;8.896;2023-02-08T12:37:29;32.37;;;12.90;;
2305;SDS011;1161;51.922;8.896;2023-02-08T12:40:31;26.93;;;10.33;;
2305;SDS011;1161;51.922;8.896;2023-02-08T12:43:22;22.20;;;11.20;;
2305;SDS011;1161;51.922;8.896;2023-02-08T12:45:59;26.13;;;12.10;;
2305;SDS011;1161;51.922;8.896;2023-02-08T12:48:39;19.20;;;11.53;;
2305;SDS011;1161;51.922;8.896;2023-02-08T12:51:17;23.20;;;12.00;;
2305;SDS011;1161;51.922;8.896;2023-02-08T12:53:49;31.80;;;12.70;;
2305;SDS011;1161;51.922;8.896;2023-02-08T12:56:19;16.67;;;10.70;;
2305;SDS011;1161;51.922;8.896;2023-02-08T12:58:49;19.73;;;11.07;;
2305;SDS011;1161;51.922;8.896;2023-02-08T13:01:18;17.10;;;10.50;;
2305;SDS011;1161;51.922;8.896;2023-02-08T13:03:47;21.47;;;10.67;;
2305;SDS011;1161;51.922;8.896;2023-02-08T13:06:19;20.40;;;11.50;;
2305;SDS011;1161;51.922;8.896;2023-02-08T13:08:51;18.73;;;10.63;;
2305;SDS011;1161;51.922;8.896;2023-02-08T13:11:23;23.33;;;10.33;;
2305;SDS011;1161;51.922;8.896;2023-02-08T13:13:56;18.20;;;10.30;;
2305;SDS011;1161;51.922;8.896;2023-02-08T13:16:27;22.93;;;11.63;;
2305;SDS011;1161;51.922;8.896;2023-02-08T13:19:02;16.07;;;10.60;;
2305;SDS011;1161;51.922;8.896;2023-02-08T13:21:35;18.07;;;10.70;;
2305;SDS011;1161;51.922;8.896;2023-02-08T13:24:09;18.53;;;10.00;;
2305;SDS011;1161;51.922;8.896;2023-02-08T13:26:44;16.03;;;10.00;;
2305;SDS011;1161;51.922;8.896;2023-02-08T13:29:14;19.60;;;11.43;;
2305;SDS011;1161;51.922;8.896;2023-02-08T13:31:44;16.83;;;10.20;;
2305;SDS011;1161;51.922;8.896;2023-02-08T13:34:14;22.87;;;10.50;;
2305;SDS011;1161;51.922;8.896;2023-02-08T13:36:48;18.17;;;8.70;;
2305;SDS011;1161;51.922;8.896;2023-02-08T13:39:25;20.30;;;11.20;;
2305;SDS011;1161;51.922;8.896;2023-02-08T13:41:56;16.13;;;9.77;;
2305;SDS011;1161;51.922;8.896;2023-02-08T13:44:24;17.23;;;9.40;;
2305;SDS011;1161;51.922;8.896;2023-02-08T13:46:53;15.80;;;9.50;;
2305;SDS011;1161;51.922;8.896;2023-02-08T13:49:40;11.10;;;8.63;;
2305;SDS011;1161;51.922;8.896;2023-02-08T13:52:09;15.70;;;8.63;;
2305;SDS011;1161;51.922;8.896;2023-02-08T13:54:37;16.37;;;9.00;;
2305;SDS011;1161;51.922;8.896;2023-02-08T13:57:04;16.37;;;7.87;;
2305;SDS011;1161;51.922;8.896;2023-02-08T14:00:21;19.40;;;9.23;;
2305;SDS011;1161;51.922;8.896;2023-02-08T14:05:46;16.83;;;8.80;;
2305;SDS011;1161;51.922;8.896;2023-02-08T14:08:17;20.30;;;9.27;;
2305;SDS011;1161;51.922;8.896;2023-02-08T14:10:49;23.13;;;8.77;;
2305;SDS011;1161;51.922;8.896;2023-02-08T14:13:20;20.13;;;9.70;;
2305;SDS011;1161;51.922;8.896;2023-02-08T14:18:51;20.07;;;9.93;;
2305;SDS011;1161;51.922;8.896;2023-02-08T14:21:25;11.90;;;8.80;;
2305;SDS011;1161;51.922;8.896;2023-02-08T14:23:59;10.93;;;8.30;;
2305;SDS011;1161;51.922;8.896;2023-02-08T14:26:27;21.00;;;8.57;;
2305;SDS011;1161;51.922;8.896;2023-02-08T14:28:54;19.80;;;8.60;;
2305;SDS011;1161;51.922;8.896;2023-02-08T14:31:24;17.27;;;8.83;;
2305;SDS011;1161;51.922;8.896;2023-02-08T14:34:01;13.83;;;7.30;;
2305;SDS011;1161;51.922;8.896;2023-02-08T14:36:28;11.10;;;6.80;;
2305;SDS011;1161;51.922;8.896;2023-02-08T14:39:04;13.07;;;7.17;;
2305;SDS011;1161;51.922;8.896;2023-02-08T14:41:43;18.57;;;7.60;;
2305;SDS011;1161;51.922;8.896;2023-02-08T14:50:35;11.97;;;6.87;;
2305;SDS011;1161;51.922;8.896;2023-02-08T14:53:14;8.63;;;5.50;;
2305;SDS011;1161;51.922;8.896;2023-02-08T14:55:44;10.47;;;6.70;;
2305;SDS011;1161;51.922;8.896;2023-02-08T14:58:24;5.80;;;5.23;;
2305;SDS011;1161;51.922;8.896;2023-02-08T15:00:53;11.40;;;7.23;;
2305;SDS011;1161;51.922;8.896;2023-02-08T15:03:22;12.67;;;6.70;;
2305;SDS011;1161;51.922;8.896;2023-02-08T15:06:01;8.40;;;5.20;;
2305;SDS011;1161;51.922;8.896;2023-02-08T15:08:31;12.03;;;6.60;;
2305;SDS011;1161;51.922;8.896;2023-02-08T15:10:59;13.17;;;7.50;;
2305;SDS011;1161;51.922;8.896;2023-02-08T15:13:25;13.73;;;8.50;;
2305;SDS011;1161;51.922;8.896;2023-02-08T15:15:57;12.60;;;7.00;;
2305;SDS011;1161;51.922;8.896;2023-02-08T15:18:26;14.10;;;8.33;;
2305;SDS011;1161;51.922;8.896;2023-02-08T15:20:57;13.60;;;6.30;;
2305;SDS011;1161;51.922;8.896;2023-02-08T15:23:27;14.37;;;7.23;;
2305;SDS011;1161;51.922;8.896;2023-02-08T15:25:55;12.17;;;7.40;;
2305;SDS011;1161;51.922;8.896;2023-02-08T15:28:23;14.80;;;7.73;;